sensor_id;sensor_type;location;lat;lon;timestamp;P1;durP1;ratioP1;P2;durP2;ratioP2
53666;SDS011;39568;51.026;5.468;2023-11-22T00:00:15;94.22;;;36.05;;
53666;SDS011;39568;51.026;5.468;2023-11-22T00:02:42;96.03;;;38.28;;
53666;SDS011;39568;51.026;5.468;2023-11-22T00:05:08;105.82;;;40.88;;
53666;SDS011;39568;51.026;5.468;2023-11-22T00:07:36;94.28;;;35.80;;
53666;SDS011;39568;51.026;5.468;2023-11-22T00:10:03;93.20;;;37.15;;
53666;SDS011;39568;51.026;5.468;2023-11-22T00:12:30;102.15;;;38.72;;
53666;SDS011;39568;51.026;5.468;2023-11-22T00:15:02;103.07;;;43.85;;
53666;SDS011;39568;51.026;5.468;2023-11-22T00:17:30;93.30;;;35.63;;
53666;SDS011;39568;51.026;5.468;2023-11-22T00:19:57;98.35;;;36.85;;
53666;SDS011;39568;51.026;5.468;2023-11-22T00:22:28;103.75;;;35.35;;
53666;SDS011;39568;51.026;5.468;2023-11-22T00:24:57;80.78;;;31.42;;
53666;SDS011;39568;51.026;5.468;2023-11-22T00:27:23;90.97;;;34.60;;
53666;SDS011;39568;51.026;5.468;2023-11-22T00:29:50;92.35;;;33.83;;
53666;SDS011;39568;51.026;5.468;2023-11-22T00:32:18;102.15;;;40.53;;
53666;SDS011;39568;51.026;5.468;2023-11-22T00:34:45;102.90;;;36.75;;
53666;SDS011;39568;51.026;5.468;2023-11-22T00:37:12;119.97;;;41.25;;
53666;SDS011;39568;51.026;5.468;2023-11-22T00:39:39;113.72;;;37.53;;
53666;SDS011;39568;51.026;5.468;2023-11-22T00:42:05;111.72;;;38.97;;
53666;SDS011;39568;51.026;5.468;2023-11-22T00:44:32;123.47;;;41.35;;
53666;SDS011;39568;51.026;5.468;2023-11-22T00:46:58;115.97;;;38.80;;
53666;SDS011;39568;51.026;5.468;2023-11-22T00:49:26;111.45;;;40.20;;
53666;SDS011;39568;51.026;5.468;2023-11-22T00:51:53;115.75;;;37.92;;
53666;SDS011;39568;51.026;5.468;2023-11-22T00:54:19;105.32;;;38.58;;
53666;SDS011;39568;51.026;5.468;2023-11-22T00:56:46;102.60;;;37.33;;
53666;SDS011;39568;51.026;5.468;2023-11-22T00:59:12;91.57;;;33.92;;
53666;SDS011;39568;51.026;5.468;2023-11-22T01:01:39;109.57;;;42.25;;
53666;SDS011;39568;51.026;5.468;2023-11-22T01:04:06;123.50;;;42.30;;
53666;SDS011;39568;51.026;5.468;2023-11-22T01:06:34;107.85;;;37.92;;
53666;SDS011;39568;51.026;5.468;2023-11-22T01:09:02;148.25;;;44.50;;
53666;SDS011;39568;51.026;5.468;2023-11-22T01:11:28;121.68;;;36.85;;
53666;SDS011;39568;51.026;5.468;2023-11-22T01:13:54;144.38;;;46.00;;
53666;SDS011;39568;51.026;5.468;2023-11-22T01:16:21;122.93;;;36.08;;
53666;SDS011;39568;51.026;5.468;2023-11-22T01:18:48;117.05;;;38.83;;
53666;SDS011;39568;51.026;5.468;2023-11-22T01:21:14;134.00;;;40.10;;
53666;SDS011;39568;51.026;5.468;2023-11-22T01:23:42;172.75;;;42.67;;
53666;SDS011;39568;51.026;5.468;2023-11-22T01:26:10;171.63;;;40.50;;
53666;SDS011;39568;51.026;5.468;2023-11-22T01:28:37;248.02;;;50.45;;
53666;SDS011;39568;51.026;5.468;2023-11-22T01:31:10;276.77;;;52.47;;
53666;SDS011;39568;51.026;5.468;2023-11-22T01:33:36;234.57;;;49.88;;
53666;SDS011;39568;51.026;5.468;2023-11-22T01:36:03;257.98;;;54.20;;
53666;SDS011;39568;51.026;5.468;2023-11-22T01:38:29;158.55;;;45.17;;
53666;SDS011;39568;51.026;5.468;2023-11-22T01:40:57;225.30;;;53.30;;
53666;SDS011;39568;51.026;5.468;2023-11-22T01:43:26;183.98;;;49.92;;
53666;SDS011;39568;51.026;5.468;2023-11-22T01:45:53;203.27;;;50.28;;
53666;SDS011;39568;51.026;5.468;2023-11-22T01:48:20;202.07;;;53.97;;
53666;SDS011;39568;51.026;5.468;2023-11-22T01:50:47;208.57;;;49.15;;
53666;SDS011;39568;51.026;5.468;2023-11-22T01:53:14;173.35;;;46.97;;
53666;SDS011;39568;51.026;5.468;2023-11-22T01:55:41;189.07;;;47.10;;
53666;SDS011;39568;51.026;5.468;2023-11-22T01:58:10;172.93;;;47.08;;
53666;SDS011;39568;51.026;5.468;2023-11-22T02:00:43;197.00;;;45.65;;
53666;SDS011;39568;51.026;5.468;2023-11-22T02:03:10;190.40;;;51.10;;
53666;SDS011;39568;51.026;5.468;2023-11-22T02:05:39;190.48;;;47.17;;
53666;SDS011;39568;51.026;5.468;2023-11-22T02:08:07;206.55;;;46.95;;
53666;SDS011;39568;51.026;5.468;2023-11-22T02:10:33;176.43;;;48.45;;
53666;SDS011;39568;51.026;5.468;2023-11-22T02:13:01;164.77;;;43.30;;
53666;SDS011;39568;51.026;5.468;2023-11-22T02:15:31;164.52;;;43.92;;
53666;SDS011;39568;51.026;5.468;2023-11-22T02:17:58;136.63;;;45.53;;
53666;SDS011;39568;51.026;5.468;2023-11-22T02:20:25;130.02;;;39.70;;
53666;SDS011;39568;51.026;5.468;2023-11-22T02:22:51;143.10;;;46.55;;
53666;SDS011;39568;51.026;5.468;2023-11-22T02:25:20;130.38;;;42.28;;
53666;SDS011;39568;51.026;5.468;2023-11-22T02:27:46;139.35;;;45.67;;
53666;SDS011;39568;51.026;5.468;2023-11-22T02:30:13;142.15;;;41.30;;
53666;SDS011;39568;51.026;5.468;2023-11-22T02:32:40;142.48;;;43.25;;
53666;SDS011;39568;51.026;5.468;2023-11-22T02:35:07;133.63;;;38.05;;
53666;SDS011;39568;51.026;5.468;2023-11-22T02:37:33;121.57;;;41.20;;
53666;SDS011;39568;51.026;5.468;2023-11-22T02:40:02;116.80;;;43.47;;
53666;SDS011;39568;51.026;5.468;2023-11-22T02:42:31;114.88;;;40.67;;
53666;SDS011;39568;51.026;5.468;2023-11-22T02:44:58;103.03;;;38.97;;
53666;SDS011;39568;51.026;5.468;2023-11-22T02:47:24;108.80;;;39.45;;
53666;SDS011;39568;51.026;5.468;2023-11-22T02:49:51;107.10;;;43.50;;
53666;SDS011;39568;51.026;5.468;2023-11-22T02:52:19;110.63;;;44.13;;
53666;SDS011;39568;51.026;5.468;2023-11-22T02:54:47;115.72;;;43.05;;
53666;SDS011;39568;51.026;5.468;2023-11-22T02:57:14;103.90;;;40.35;;
53666;SDS011;39568;51.026;5.468;2023-11-22T02:59:42;91.63;;;38.60;;
53666;SDS011;39568;51.026;5.468;2023-11-22T03:02:09;99.65;;;42.97;;
53666;SDS011;39568;51.026;5.468;2023-11-22T03:04:35;100.72;;;40.17;;
53666;SDS011;39568;51.026;5.468;2023-11-22T03:07:02;105.38;;;40.53;;
53666;SDS011;39568;51.026;5.468;2023-11-22T03:09:28;99.80;;;41.38;;
53666;SDS011;39568;51.026;5.468;2023-11-22T03:11:54;95.53;;;42.25;;
53666;SDS011;39568;51.026;5.468;2023-11-22T03:14:21;97.35;;;40.58;;
53666;SDS011;39568;51.026;5.468;2023-11-22T03:16:49;103.05;;;37.85;;
53666;SDS011;39568;51.026;5.468;2023-11-22T03:19:15;98.85;;;42.22;;
53666;SDS011;39568;51.026;5.468;2023-11-22T03:21:42;103.30;;;41.75;;
53666;SDS011;39568;51.026;5.468;2023-11-22T03:24:09;96.85;;;43.13;;
53666;SDS011;39568;51.026;5.468;2023-11-22T03:26:35;102.22;;;42.10;;
53666;SDS011;39568;51.026;5.468;2023-11-22T03:29:02;108.45;;;41.53;;
53666;SDS011;39568;51.026;5.468;2023-11-22T03:31:28;111.32;;;42.53;;
53666;SDS011;39568;51.026;5.468;2023-11-22T03:33:56;117.15;;;45.05;;
53666;SDS011;39568;51.026;5.468;2023-11-22T03:36:23;120.72;;;46.70;;
53666;SDS011;39568;51.026;5.468;2023-11-22T03:38:50;109.50;;;43.45;;
53666;SDS011;39568;51.026;5.468;2023-11-22T03:41:16;111.85;;;45.35;;
53666;SDS011;39568;51.026;5.468;2023-11-22T03:43:43;86.35;;;40.05;;
53666;SDS011;39568;51.026;5.468;2023-11-22T03:46:09;91.10;;;38.90;;
53666;SDS011;39568;51.026;5.468;2023-11-22T03:48:36;100.43;;;40.88;;
53666;SDS011;39568;51.026;5.468;2023-11-22T03:51:04;95.10;;;39.92;;
53666;SDS011;39568;51.026;5.468;2023-11-22T03:53:30;93.93;;;40.80;;
53666;SDS011;39568;51.026;5.468;2023-11-22T03:55:57;93.32;;;39.95;;
53666;SDS011;39568;51.026;5.468;2023-11-22T03:58:24;88.53;;;37.53;;
53666;SDS011;39568;51.026;5.468;2023-11-22T04:00:50;75.40;;;36.00;;
53666;SDS011;39568;51.026;5.468;2023-11-22T04:03:17;86.43;;;36.38;;
53666;SDS011;39568;51.026;5.468;2023-11-22T04:05:44;91.70;;;40.17;;
53666;SDS011;39568;51.026;5.468;2023-11-22T04:08:11;74.50;;;36.25;;
53666;SDS011;39568;51.026;5.468;2023-11-22T04:10:38;82.20;;;36.20;;
53666;SDS011;39568;51.026;5.468;2023-11-22T04:13:04;85.13;;;38.05;;
53666;SDS011;39568;51.026;5.468;2023-11-22T04:15:31;86.75;;;37.05;;
53666;SDS011;39568;51.026;5.468;2023-11-22T04:17:57;90.63;;;37.47;;
53666;SDS011;39568;51.026;5.468;2023-11-22T04:20:24;94.75;;;42.25;;
53666;SDS011;39568;51.026;5.468;2023-11-22T04:22:50;92.05;;;39.10;;
53666;SDS011;39568;51.026;5.468;2023-11-22T04:25:18;105.82;;;43.80;;
53666;SDS011;39568;51.026;5.468;2023-11-22T04:27:44;113.30;;;44.05;;
53666;SDS011;39568;51.026;5.468;2023-11-22T04:30:12;95.68;;;39.78;;
53666;SDS011;39568;51.026;5.468;2023-11-22T04:32:39;81.57;;;35.45;;
53666;SDS011;39568;51.026;5.468;2023-11-22T04:35:06;94.72;;;38.35;;
53666;SDS011;39568;51.026;5.468;2023-11-22T04:37:33;100.18;;;39.00;;
53666;SDS011;39568;51.026;5.468;2023-11-22T04:39:59;88.68;;;38.85;;
53666;SDS011;39568;51.026;5.468;2023-11-22T04:42:29;96.50;;;41.08;;
53666;SDS011;39568;51.026;5.468;2023-11-22T04:44:56;102.97;;;45.95;;
53666;SDS011;39568;51.026;5.468;2023-11-22T04:47:22;95.65;;;38.83;;
53666;SDS011;39568;51.026;5.468;2023-11-22T04:49:50;106.65;;;43.22;;
53666;SDS011;39568;51.026;5.468;2023-11-22T04:52:16;116.82;;;45.42;;
53666;SDS011;39568;51.026;5.468;2023-11-22T04:54:43;103.28;;;37.42;;
53666;SDS011;39568;51.026;5.468;2023-11-22T04:57:09;108.15;;;41.92;;
53666;SDS011;39568;51.026;5.468;2023-11-22T04:59:37;106.55;;;42.67;;
53666;SDS011;39568;51.026;5.468;2023-11-22T05:02:05;100.97;;;42.70;;
53666;SDS011;39568;51.026;5.468;2023-11-22T05:04:32;110.05;;;41.88;;
53666;SDS011;39568;51.026;5.468;2023-11-22T05:06:59;100.38;;;41.25;;
53666;SDS011;39568;51.026;5.468;2023-11-22T05:09:25;98.82;;;42.00;;
53666;SDS011;39568;51.026;5.468;2023-11-22T05:11:53;93.03;;;41.20;;
53666;SDS011;39568;51.026;5.468;2023-11-22T05:14:19;98.05;;;41.55;;
53666;SDS011;39568;51.026;5.468;2023-11-22T05:16:47;94.95;;;39.45;;
53666;SDS011;39568;51.026;5.468;2023-11-22T05:19:13;87.55;;;38.97;;
53666;SDS011;39568;51.026;5.468;2023-11-22T05:21:40;92.15;;;39.00;;
53666;SDS011;39568;51.026;5.468;2023-11-22T05:24:06;92.10;;;38.03;;
53666;SDS011;39568;51.026;5.468;2023-11-22T05:26:33;90.63;;;39.60;;
53666;SDS011;39568;51.026;5.468;2023-11-22T05:29:00;101.68;;;42.88;;
53666;SDS011;39568;51.026;5.468;2023-11-22T05:31:26;92.75;;;40.80;;
53666;SDS011;39568;51.026;5.468;2023-11-22T05:33:54;100.07;;;41.63;;
53666;SDS011;39568;51.026;5.468;2023-11-22T05:36:20;114.15;;;45.20;;
53666;SDS011;39568;51.026;5.468;2023-11-22T05:38:47;112.30;;;43.17;;
53666;SDS011;39568;51.026;5.468;2023-11-22T05:41:14;112.40;;;45.03;;
53666;SDS011;39568;51.026;5.468;2023-11-22T05:43:41;118.63;;;43.90;;
53666;SDS011;39568;51.026;5.468;2023-11-22T05:46:08;118.45;;;43.70;;
53666;SDS011;39568;51.026;5.468;2023-11-22T05:48:34;122.30;;;48.60;;
53666;SDS011;39568;51.026;5.468;2023-11-22T05:51:02;123.10;;;44.20;;
53666;SDS011;39568;51.026;5.468;2023-11-22T05:53:28;125.70;;;48.40;;
53666;SDS011;39568;51.026;5.468;2023-11-22T05:55:55;122.47;;;45.00;;
53666;SDS011;39568;51.026;5.468;2023-11-22T05:58:21;133.00;;;45.47;;
53666;SDS011;39568;51.026;5.468;2023-11-22T06:00:48;136.50;;;48.53;;
53666;SDS011;39568;51.026;5.468;2023-11-22T06:03:14;133.75;;;50.42;;
53666;SDS011;39568;51.026;5.468;2023-11-22T06:05:40;139.60;;;47.53;;
53666;SDS011;39568;51.026;5.468;2023-11-22T06:08:08;125.32;;;43.65;;
53666;SDS011;39568;51.026;5.468;2023-11-22T06:10:35;132.55;;;46.08;;
53666;SDS011;39568;51.026;5.468;2023-11-22T06:13:03;109.68;;;41.10;;
53666;SDS011;39568;51.026;5.468;2023-11-22T06:15:29;117.82;;;44.15;;
53666;SDS011;39568;51.026;5.468;2023-11-22T06:17:56;127.25;;;49.78;;
53666;SDS011;39568;51.026;5.468;2023-11-22T06:20:23;125.95;;;45.22;;
53666;SDS011;39568;51.026;5.468;2023-11-22T06:22:51;122.50;;;47.13;;
53666;SDS011;39568;51.026;5.468;2023-11-22T06:25:19;132.82;;;46.85;;
53666;SDS011;39568;51.026;5.468;2023-11-22T06:27:45;123.30;;;44.15;;
53666;SDS011;39568;51.026;5.468;2023-11-22T06:30:12;121.13;;;45.72;;
53666;SDS011;39568;51.026;5.468;2023-11-22T06:32:39;119.00;;;44.95;;
53666;SDS011;39568;51.026;5.468;2023-11-22T06:35:07;134.02;;;48.65;;
53666;SDS011;39568;51.026;5.468;2023-11-22T06:37:34;130.63;;;50.40;;
53666;SDS011;39568;51.026;5.468;2023-11-22T06:40:01;112.30;;;41.75;;
53666;SDS011;39568;51.026;5.468;2023-11-22T06:42:29;111.28;;;43.45;;
53666;SDS011;39568;51.026;5.468;2023-11-22T06:44:55;119.63;;;46.80;;
53666;SDS011;39568;51.026;5.468;2023-11-22T06:47:25;127.20;;;47.28;;
53666;SDS011;39568;51.026;5.468;2023-11-22T06:49:52;125.78;;;49.13;;
53666;SDS011;39568;51.026;5.468;2023-11-22T06:52:18;128.00;;;48.67;;
53666;SDS011;39568;51.026;5.468;2023-11-22T06:54:45;142.27;;;50.30;;
53666;SDS011;39568;51.026;5.468;2023-11-22T06:57:11;146.40;;;48.90;;
53666;SDS011;39568;51.026;5.468;2023-11-22T06:59:39;133.98;;;49.92;;
53666;SDS011;39568;51.026;5.468;2023-11-22T07:02:06;139.88;;;50.10;;
53666;SDS011;39568;51.026;5.468;2023-11-22T07:04:32;167.45;;;55.15;;
53666;SDS011;39568;51.026;5.468;2023-11-22T07:06:59;152.23;;;53.70;;
53666;SDS011;39568;51.026;5.468;2023-11-22T07:09:27;159.10;;;55.80;;
53666;SDS011;39568;51.026;5.468;2023-11-22T07:11:53;141.13;;;53.47;;
53666;SDS011;39568;51.026;5.468;2023-11-22T07:14:22;139.38;;;52.05;;
53666;SDS011;39568;51.026;5.468;2023-11-22T07:16:51;133.60;;;46.25;;
53666;SDS011;39568;51.026;5.468;2023-11-22T07:19:17;141.13;;;51.30;;
53666;SDS011;39568;51.026;5.468;2023-11-22T07:21:44;127.20;;;43.15;;
53666;SDS011;39568;51.026;5.468;2023-11-22T07:24:11;110.72;;;40.88;;
53666;SDS011;39568;51.026;5.468;2023-11-22T07:26:40;112.45;;;46.15;;
53666;SDS011;39568;51.026;5.468;2023-11-22T07:29:07;110.60;;;41.83;;
53666;SDS011;39568;51.026;5.468;2023-11-22T07:31:34;115.00;;;43.75;;
53666;SDS011;39568;51.026;5.468;2023-11-22T07:34:03;110.55;;;47.53;;
53666;SDS011;39568;51.026;5.468;2023-11-22T07:36:29;96.60;;;39.88;;
53666;SDS011;39568;51.026;5.468;2023-11-22T07:38:56;90.65;;;40.42;;
53666;SDS011;39568;51.026;5.468;2023-11-22T07:41:24;94.82;;;40.58;;
53666;SDS011;39568;51.026;5.468;2023-11-22T07:43:51;92.05;;;38.97;;
53666;SDS011;39568;51.026;5.468;2023-11-22T07:46:18;89.30;;;38.53;;
53666;SDS011;39568;51.026;5.468;2023-11-22T07:48:45;87.68;;;38.10;;
53666;SDS011;39568;51.026;5.468;2023-11-22T07:51:14;100.82;;;44.05;;
53666;SDS011;39568;51.026;5.468;2023-11-22T07:53:41;97.60;;;40.85;;
53666;SDS011;39568;51.026;5.468;2023-11-22T07:56:08;89.80;;;39.67;;
53666;SDS011;39568;51.026;5.468;2023-11-22T07:58:36;97.35;;;39.97;;
53666;SDS011;39568;51.026;5.468;2023-11-22T08:01:03;97.55;;;43.22;;
53666;SDS011;39568;51.026;5.468;2023-11-22T08:03:31;88.03;;;40.45;;
53666;SDS011;39568;51.026;5.468;2023-11-22T08:05:59;93.72;;;38.55;;
53666;SDS011;39568;51.026;5.468;2023-11-22T08:08:29;84.32;;;38.38;;
53666;SDS011;39568;51.026;5.468;2023-11-22T08:10:56;86.00;;;40.22;;
53666;SDS011;39568;51.026;5.468;2023-11-22T08:13:22;92.28;;;39.95;;
53666;SDS011;39568;51.026;5.468;2023-11-22T08:15:49;84.88;;;39.25;;
53666;SDS011;39568;51.026;5.468;2023-11-22T08:18:16;80.28;;;36.08;;
53666;SDS011;39568;51.026;5.468;2023-11-22T08:20:42;80.53;;;35.22;;
53666;SDS011;39568;51.026;5.468;2023-11-22T08:23:09;79.50;;;38.47;;
53666;SDS011;39568;51.026;5.468;2023-11-22T08:25:39;69.93;;;34.30;;
53666;SDS011;39568;51.026;5.468;2023-11-22T08:28:05;65.93;;;32.70;;
53666;SDS011;39568;51.026;5.468;2023-11-22T08:30:33;64.38;;;33.95;;
53666;SDS011;39568;51.026;5.468;2023-11-22T08:33:01;78.60;;;37.17;;
53666;SDS011;39568;51.026;5.468;2023-11-22T08:35:27;76.13;;;35.00;;
53666;SDS011;39568;51.026;5.468;2023-11-22T08:37:54;81.82;;;36.97;;
53666;SDS011;39568;51.026;5.468;2023-11-22T08:40:22;77.85;;;38.58;;
53666;SDS011;39568;51.026;5.468;2023-11-22T08:42:52;75.93;;;36.05;;
53666;SDS011;39568;51.026;5.468;2023-11-22T08:45:18;78.63;;;35.47;;
53666;SDS011;39568;51.026;5.468;2023-11-22T08:47:45;82.15;;;37.58;;
53666;SDS011;39568;51.026;5.468;2023-11-22T08:50:11;76.85;;;33.80;;
53666;SDS011;39568;51.026;5.468;2023-11-22T08:52:38;68.20;;;33.05;;
53666;SDS011;39568;51.026;5.468;2023-11-22T08:55:05;69.22;;;32.28;;
53666;SDS011;39568;51.026;5.468;2023-11-22T08:57:32;66.00;;;32.75;;
53666;SDS011;39568;51.026;5.468;2023-11-22T09:00:00;72.75;;;36.42;;
53666;SDS011;39568;51.026;5.468;2023-11-22T09:02:31;70.72;;;34.60;;
53666;SDS011;39568;51.026;5.468;2023-11-22T09:04:58;62.63;;;32.50;;
53666;SDS011;39568;51.026;5.468;2023-11-22T09:07:25;62.72;;;31.45;;
53666;SDS011;39568;51.026;5.468;2023-11-22T09:09:53;64.45;;;32.53;;
53666;SDS011;39568;51.026;5.468;2023-11-22T09:12:19;67.50;;;33.53;;
53666;SDS011;39568;51.026;5.468;2023-11-22T09:14:46;65.40;;;31.50;;
53666;SDS011;39568;51.026;5.468;2023-11-22T09:17:13;63.03;;;31.33;;
53666;SDS011;39568;51.026;5.468;2023-11-22T09:19:40;60.90;;;31.95;;
53666;SDS011;39568;51.026;5.468;2023-11-22T09:22:06;77.97;;;33.92;;
53666;SDS011;39568;51.026;5.468;2023-11-22T09:24:33;63.67;;;31.27;;
53666;SDS011;39568;51.026;5.468;2023-11-22T09:27:02;60.05;;;30.40;;
53666;SDS011;39568;51.026;5.468;2023-11-22T09:29:30;66.50;;;32.90;;
53666;SDS011;39568;51.026;5.468;2023-11-22T09:31:56;56.63;;;30.13;;
53666;SDS011;39568;51.026;5.468;2023-11-22T09:34:24;65.57;;;34.90;;
53666;SDS011;39568;51.026;5.468;2023-11-22T09:36:51;66.30;;;31.95;;
53666;SDS011;39568;51.026;5.468;2023-11-22T09:39:19;61.88;;;31.17;;
53666;SDS011;39568;51.026;5.468;2023-11-22T09:41:46;62.78;;;30.42;;
53666;SDS011;39568;51.026;5.468;2023-11-22T09:44:13;60.25;;;29.45;;
53666;SDS011;39568;51.026;5.468;2023-11-22T09:46:41;66.53;;;32.33;;
53666;SDS011;39568;51.026;5.468;2023-11-22T09:49:08;57.78;;;28.48;;
53666;SDS011;39568;51.026;5.468;2023-11-22T09:51:39;66.63;;;32.08;;
53666;SDS011;39568;51.026;5.468;2023-11-22T09:54:08;69.85;;;33.28;;
53666;SDS011;39568;51.026;5.468;2023-11-22T09:56:39;70.78;;;33.65;;
53666;SDS011;39568;51.026;5.468;2023-11-22T09:59:06;67.07;;;33.33;;
53666;SDS011;39568;51.026;5.468;2023-11-22T10:01:33;65.35;;;31.95;;
53666;SDS011;39568;51.026;5.468;2023-11-22T10:04:01;64.32;;;32.00;;
53666;SDS011;39568;51.026;5.468;2023-11-22T10:06:30;60.97;;;31.52;;
53666;SDS011;39568;51.026;5.468;2023-11-22T10:09:00;65.18;;;30.98;;
53666;SDS011;39568;51.026;5.468;2023-11-22T10:11:31;61.03;;;30.95;;
53666;SDS011;39568;51.026;5.468;2023-11-22T10:13:58;57.53;;;30.38;;
53666;SDS011;39568;51.026;5.468;2023-11-22T10:16:24;51.80;;;27.98;;
53666;SDS011;39568;51.026;5.468;2023-11-22T10:18:51;63.33;;;33.95;;
53666;SDS011;39568;51.026;5.468;2023-11-22T10:21:21;55.90;;;29.33;;
53666;SDS011;39568;51.026;5.468;2023-11-22T10:23:49;52.20;;;28.38;;
53666;SDS011;39568;51.026;5.468;2023-11-22T10:26:18;56.13;;;30.23;;
53666;SDS011;39568;51.026;5.468;2023-11-22T10:28:44;59.90;;;31.67;;
53666;SDS011;39568;51.026;5.468;2023-11-22T10:31:11;49.70;;;27.25;;
53666;SDS011;39568;51.026;5.468;2023-11-22T10:33:41;52.58;;;28.58;;
53666;SDS011;39568;51.026;5.468;2023-11-22T10:36:08;55.67;;;27.83;;
53666;SDS011;39568;51.026;5.468;2023-11-22T10:38:35;52.90;;;27.95;;
53666;SDS011;39568;51.026;5.468;2023-11-22T10:41:03;54.17;;;28.15;;
53666;SDS011;39568;51.026;5.468;2023-11-22T10:43:31;51.10;;;27.35;;
53666;SDS011;39568;51.026;5.468;2023-11-22T10:46:00;53.72;;;31.50;;
53666;SDS011;39568;51.026;5.468;2023-11-22T10:48:27;50.50;;;29.35;;
53666;SDS011;39568;51.026;5.468;2023-11-22T10:50:54;52.28;;;28.20;;
53666;SDS011;39568;51.026;5.468;2023-11-22T10:53:25;52.60;;;27.15;;
53666;SDS011;39568;51.026;5.468;2023-11-22T10:55:59;45.00;;;26.67;;
53666;SDS011;39568;51.026;5.468;2023-11-22T10:58:28;54.25;;;28.05;;
53666;SDS011;39568;51.026;5.468;2023-11-22T11:00:59;58.78;;;27.20;;
53666;SDS011;39568;51.026;5.468;2023-11-22T11:03:28;60.20;;;30.30;;
53666;SDS011;39568;51.026;5.468;2023-11-22T11:05:57;46.70;;;23.52;;
53666;SDS011;39568;51.026;5.468;2023-11-22T11:08:24;43.35;;;25.67;;
53666;SDS011;39568;51.026;5.468;2023-11-22T11:10:52;42.35;;;24.50;;
53666;SDS011;39568;51.026;5.468;2023-11-22T11:13:21;47.17;;;25.98;;
53666;SDS011;39568;51.026;5.468;2023-11-22T11:15:48;41.60;;;24.95;;
53666;SDS011;39568;51.026;5.468;2023-11-22T11:18:16;41.22;;;24.10;;
53666;SDS011;39568;51.026;5.468;2023-11-22T11:20:47;47.80;;;26.48;;
53666;SDS011;39568;51.026;5.468;2023-11-22T11:23:14;49.55;;;25.73;;
53666;SDS011;39568;51.026;5.468;2023-11-22T11:25:41;40.67;;;22.25;;
53666;SDS011;39568;51.026;5.468;2023-11-22T11:28:09;35.47;;;21.92;;
53666;SDS011;39568;51.026;5.468;2023-11-22T11:30:40;41.30;;;23.33;;
53666;SDS011;39568;51.026;5.468;2023-11-22T11:33:08;64.78;;;34.00;;
53666;SDS011;39568;51.026;5.468;2023-11-22T11:35:38;32.15;;;19.35;;
53666;SDS011;39568;51.026;5.468;2023-11-22T11:38:05;28.65;;;18.95;;
53666;SDS011;39568;51.026;5.468;2023-11-22T11:40:34;33.78;;;20.08;;
53666;SDS011;39568;51.026;5.468;2023-11-22T11:43:00;31.13;;;18.88;;
53666;SDS011;39568;51.026;5.468;2023-11-22T11:45:27;23.02;;;17.10;;
53666;SDS011;39568;51.026;5.468;2023-11-22T11:47:54;27.17;;;16.98;;
53666;SDS011;39568;51.026;5.468;2023-11-22T11:50:21;30.67;;;18.63;;
53666;SDS011;39568;51.026;5.468;2023-11-22T11:52:49;43.90;;;24.05;;
53666;SDS011;39568;51.026;5.468;2023-11-22T11:55:15;33.85;;;18.50;;
53666;SDS011;39568;51.026;5.468;2023-11-22T11:57:42;37.45;;;21.73;;
53666;SDS011;39568;51.026;5.468;2023-11-22T12:00:12;35.42;;;20.20;;
53666;SDS011;39568;51.026;5.468;2023-11-22T12:02:39;37.50;;;21.65;;
53666;SDS011;39568;51.026;5.468;2023-11-22T12:05:06;36.72;;;19.65;;
53666;SDS011;39568;51.026;5.468;2023-11-22T12:07:33;34.60;;;21.42;;
53666;SDS011;39568;51.026;5.468;2023-11-22T12:10:01;39.95;;;19.67;;
53666;SDS011;39568;51.026;5.468;2023-11-22T12:12:28;31.80;;;18.98;;
53666;SDS011;39568;51.026;5.468;2023-11-22T12:14:55;33.25;;;18.75;;
53666;SDS011;39568;51.026;5.468;2023-11-22T12:17:21;29.95;;;17.73;;
53666;SDS011;39568;51.026;5.468;2023-11-22T12:19:48;32.92;;;20.05;;
53666;SDS011;39568;51.026;5.468;2023-11-22T12:22:14;35.20;;;19.73;;
53666;SDS011;39568;51.026;5.468;2023-11-22T12:24:41;26.90;;;14.23;;
53666;SDS011;39568;51.026;5.468;2023-11-22T12:27:10;34.80;;;20.45;;
53666;SDS011;39568;51.026;5.468;2023-11-22T12:29:37;40.05;;;24.48;;
53666;SDS011;39568;51.026;5.468;2023-11-22T12:32:02;39.30;;;21.27;;
53666;SDS011;39568;51.026;5.468;2023-11-22T12:34:29;28.60;;;17.10;;
53666;SDS011;39568;51.026;5.468;2023-11-22T12:36:55;44.38;;;24.13;;
53666;SDS011;39568;51.026;5.468;2023-11-22T12:39:22;49.00;;;26.92;;
53666;SDS011;39568;51.026;5.468;2023-11-22T12:41:51;55.78;;;29.85;;
53666;SDS011;39568;51.026;5.468;2023-11-22T12:44:19;40.38;;;24.63;;
53666;SDS011;39568;51.026;5.468;2023-11-22T12:46:46;41.78;;;22.85;;
53666;SDS011;39568;51.026;5.468;2023-11-22T12:49:14;40.95;;;23.15;;
53666;SDS011;39568;51.026;5.468;2023-11-22T12:51:45;34.97;;;17.73;;
53666;SDS011;39568;51.026;5.468;2023-11-22T12:54:11;42.58;;;24.08;;
53666;SDS011;39568;51.026;5.468;2023-11-22T12:56:38;42.42;;;23.85;;
53666;SDS011;39568;51.026;5.468;2023-11-22T12:59:04;51.83;;;24.67;;
53666;SDS011;39568;51.026;5.468;2023-11-22T13:01:32;44.50;;;24.67;;
53666;SDS011;39568;51.026;5.468;2023-11-22T13:04:00;47.78;;;23.20;;
53666;SDS011;39568;51.026;5.468;2023-11-22T13:06:26;45.60;;;25.73;;
53666;SDS011;39568;51.026;5.468;2023-11-22T13:08:54;50.70;;;27.50;;
53666;SDS011;39568;51.026;5.468;2023-11-22T13:11:21;44.25;;;24.63;;
53666;SDS011;39568;51.026;5.468;2023-11-22T13:13:47;45.63;;;23.58;;
53666;SDS011;39568;51.026;5.468;2023-11-22T13:16:14;41.30;;;20.52;;
53666;SDS011;39568;51.026;5.468;2023-11-22T13:18:42;46.40;;;23.40;;
53666;SDS011;39568;51.026;5.468;2023-11-22T13:21:09;39.42;;;20.27;;
53666;SDS011;39568;51.026;5.468;2023-11-22T13:23:35;31.20;;;16.60;;
53666;SDS011;39568;51.026;5.468;2023-11-22T13:26:02;28.50;;;12.88;;
53666;SDS011;39568;51.026;5.468;2023-11-22T13:28:30;39.05;;;16.40;;
53666;SDS011;39568;51.026;5.468;2023-11-22T13:30:57;29.85;;;15.10;;
53666;SDS011;39568;51.026;5.468;2023-11-22T13:33:24;41.72;;;17.65;;
53666;SDS011;39568;51.026;5.468;2023-11-22T13:35:52;43.60;;;23.60;;
53666;SDS011;39568;51.026;5.468;2023-11-22T13:38:18;36.60;;;18.17;;
53666;SDS011;39568;51.026;5.468;2023-11-22T13:40:45;48.55;;;25.48;;
53666;SDS011;39568;51.026;5.468;2023-11-22T13:43:11;45.88;;;26.75;;
53666;SDS011;39568;51.026;5.468;2023-11-22T13:45:38;38.92;;;22.20;;
53666;SDS011;39568;51.026;5.468;2023-11-22T13:48:06;41.78;;;24.98;;
53666;SDS011;39568;51.026;5.468;2023-11-22T13:50:34;39.83;;;19.17;;
53666;SDS011;39568;51.026;5.468;2023-11-22T13:53:02;35.33;;;20.00;;
53666;SDS011;39568;51.026;5.468;2023-11-22T13:55:29;47.60;;;24.05;;
53666;SDS011;39568;51.026;5.468;2023-11-22T13:57:56;40.95;;;20.40;;
53666;SDS011;39568;51.026;5.468;2023-11-22T14:00:23;41.78;;;21.63;;
53666;SDS011;39568;51.026;5.468;2023-11-22T14:02:51;45.63;;;23.40;;
53666;SDS011;39568;51.026;5.468;2023-11-22T14:05:20;57.15;;;22.30;;
53666;SDS011;39568;51.026;5.468;2023-11-22T14:07:47;34.45;;;17.05;;
53666;SDS011;39568;51.026;5.468;2023-11-22T14:10:15;44.30;;;24.48;;
53666;SDS011;39568;51.026;5.468;2023-11-22T14:12:42;55.45;;;25.05;;
53666;SDS011;39568;51.026;5.468;2023-11-22T14:15:09;44.42;;;22.17;;